Time;durP1;ratioP1;P1;durP2;ratioP2;P2;SDS_P1;SDS_P2;PMS_P1;PMS_P2;Temp;Humidity;BMP_temperature;BMP_pressure;BME280_temperature;BME280_humidity;BME280_pressure;Samples;Min_cycle;Max_cycle;Signal;HPM_P1;HPM_P2
2022/03/15 00:00:43;;;;;;;;;;;2.60;99.90;;;;;;4792019;29;20376;-81
2022/03/15 00:03:09;;;;;;;;;;;2.60;99.90;;;;;;4793374;29;19921;-81
2022/03/15 00:05:34;;;;;;;;;;;2.50;99.90;;;;;;4787237;30;20365;-81
2022/03/15 00:08:00;;;;;;;;;;;2.60;99.90;;;;;;4806240;29;19921;-81
2022/03/15 00:10:26;;;;;;;;;;;2.60;99.90;;;;;;4781789;29;19925;-81
2022/03/15 00:12:54;;;;;;;;;;;2.50;99.90;;;;;;4779666;29;19922;-81
2022/03/15 00:15:19;;;;;;;;;;;2.50;99.90;;;;;;4774549;30;19965;-80
2022/03/15 00:17:45;;;;;;;;;;;2.60;99.90;;;;;;4774564;30;19933;-81
2022/03/15 00:20:13;;;;;;;;;;;2.50;99.90;;;;;;4791842;29;19921;-80
2022/03/15 00:22:38;;;;;;;;;;;2.50;99.90;;;;;;4791754;29;19927;-81
2022/03/15 00:25:05;;;;;;;;;;;2.50;99.90;;;;;;4790355;29;19921;-81
2022/03/15 00:27:31;;;;;;;;;;;2.50;99.90;;;;;;4777810;29;19986;-80
2022/03/15 00:29:57;;;;;;;;;;;2.50;99.90;;;;;;4761527;30;19925;-81
2022/03/15 00:32:23;;;;;;;;;;;2.50;99.90;;;;;;4773949;30;19921;-80
2022/03/15 00:34:49;;;;;;;;;;;2.50;99.90;;;;;;4774677;30;19968;-80
2022/03/15 00:37:14;;;;;;;;;;;2.50;99.90;;;;;;4774905;30;20372;-80
2022/03/15 00:39:41;;;;;;;;;;;2.50;99.90;;;;;;4807327;29;19921;-80
2022/03/15 00:42:07;;;;;;;;;;;2.50;99.90;;;;;;4778250;30;19977;-80
2022/03/15 00:44:32;;;;;;;;;;;2.50;99.90;;;;;;4763085;30;19926;-80
2022/03/15 00:46:58;;;;;;;;;;;2.50;99.90;;;;;;4777272;30;19925;-80
2022/03/15 00:49:23;;;;;;;;;;;2.60;99.90;;;;;;4779718;30;19922;-80
2022/03/15 00:51:50;;;;;;;;;;;2.60;99.90;;;;;;4827122;29;19925;-80
2022/03/15 00:54:16;;;;;;;;;;;2.60;99.90;;;;;;4812094;29;19922;-80
2022/03/15 00:56:41;;;;;;;;;;;2.60;99.90;;;;;;4812228;29;19921;-80
2022/03/15 00:59:09;;;;;;;;;;;2.50;99.90;;;;;;4813244;29;19925;-80
2022/03/15 01:01:35;;;;;;;;;;;2.50;99.90;;;;;;4802429;29;19972;-80
2022/03/15 01:04:00;;;;;;;;;;;2.60;99.90;;;;;;4802517;29;19947;-80
2022/03/15 01:06:26;;;;;;;;;;;2.60;99.90;;;;;;4802808;29;19928;-80
2022/03/15 01:08:51;;;;;;;;;;;2.60;99.90;;;;;;4801087;29;19932;-80
2022/03/15 01:11:17;;;;;;;;;;;2.60;99.90;;;;;;4801725;29;19925;-80
2022/03/15 01:13:42;;;;;;;;;;;2.50;99.90;;;;;;4802014;29;19928;-80
2022/03/15 01:16:08;;;;;;;;;;;2.50;99.90;;;;;;4792007;29;19932;-80
2022/03/15 01:18:34;;;;;;;;;;;2.40;99.90;;;;;;4796688;29;19925;-81
2022/03/15 01:20:59;;;;;;;;;;;2.40;99.90;;;;;;4809965;29;19952;-80
2022/03/15 01:23:25;;;;;;;;;;;2.40;99.90;;;;;;4795060;29;19928;-80
2022/03/15 01:25:50;;;;;;;;;;;2.30;99.90;;;;;;4809421;29;19928;-80
2022/03/15 01:28:16;;;;;;;;;;;2.30;99.90;;;;;;4807717;29;19964;-80
2022/03/15 01:30:42;;;;;;;;;;;2.30;99.90;;;;;;4791486;29;19925;-80
2022/03/15 01:33:07;;;;;;;;;;;2.20;99.90;;;;;;4792149;30;19978;-80
2022/03/15 01:35:33;;;;;;;;;;;2.20;99.90;;;;;;4791299;30;19936;-80
2022/03/15 01:37:58;;;;;;;;;;;2.20;99.90;;;;;;4807094;29;19936;-80
2022/03/15 01:40:24;;;;;;;;;;;2.20;99.90;;;;;;4821206;29;19921;-79
2022/03/15 01:42:50;;;;;;;;;;;2.20;99.90;;;;;;4791377;29;19921;-80
2022/03/15 01:45:16;;;;;;;;;;;2.20;99.90;;;;;;4791429;29;19921;-80
2022/03/15 01:47:43;;;;;;;;;;;2.30;99.90;;;;;;4783047;29;19932;-80
2022/03/15 01:50:09;;;;;;;;;;;2.30;99.90;;;;;;4796859;30;20023;-80
2022/03/15 01:52:35;;;;;;;;;;;2.20;99.90;;;;;;4781397;30;19961;-80
2022/03/15 01:55:00;;;;;;;;;;;2.30;99.90;;;;;;4796191;30;19925;-80
2022/03/15 01:57:26;;;;;;;;;;;2.20;99.90;;;;;;4810675;29;20432;-79
2022/03/15 01:59:51;;;;;;;;;;;2.30;99.90;;;;;;4810289;29;19922;-80
2022/03/15 02:02:17;;;;;;;;;;;2.20;99.90;;;;;;4775225;30;20075;-78
2022/03/15 02:04:42;;;;;;;;;;;2.20;99.90;;;;;;4772649;29;19921;-78
2022/03/15 02:07:09;;;;;;;;;;;2.20;99.90;;;;;;4801566;29;20376;-78
2022/03/15 02:09:34;;;;;;;;;;;2.20;99.90;;;;;;4772597;30;19937;-78
2022/03/15 02:12:00;;;;;;;;;;;2.20;99.90;;;;;;4788224;29;19921;-78
2022/03/15 02:14:26;;;;;;;;;;;2.10;99.90;;;;;;4771998;30;19980;-78
2022/03/15 02:16:52;;;;;;;;;;;2.10;99.90;;;;;;4771969;30;19921;-78
2022/03/15 02:19:17;;;;;;;;;;;2.00;99.90;;;;;;4799953;29;20339;-78
2022/03/15 02:21:43;;;;;;;;;;;1.90;99.90;;;;;;4775120;29;19920;-78
2022/03/15 02:24:08;;;;;;;;;;;1.90;99.90;;;;;;4790007;29;19928;-77
2022/03/15 02:26:34;;;;;;;;;;;2.00;99.90;;;;;;4775714;29;19921;-77
2022/03/15 02:28:59;;;;;;;;;;;2.00;99.90;;;;;;4772010;30;19965;-77
2022/03/15 02:31:25;;;;;;;;;;;2.00;99.90;;;;;;4801692;29;19925;-78
2022/03/15 02:33:51;;;;;;;;;;;1.90;99.90;;;;;;4771780;30;19921;-77
2022/03/15 02:36:17;;;;;;;;;;;1.90;99.90;;;;;;4771801;30;19928;-78
2022/03/15 02:38:43;;;;;;;;;;;1.90;99.90;;;;;;4802737;29;19921;-77
2022/03/15 02:41:08;;;;;;;;;;;1.80;99.90;;;;;;4777851;29;19968;-77
2022/03/15 02:43:34;;;;;;;;;;;1.90;99.90;;;;;;4771611;30;19973;-77
2022/03/15 02:45:59;;;;;;;;;;;1.80;99.90;;;;;;4771536;30;20415;-78
2022/03/15 02:48:25;;;;;;;;;;;1.80;99.90;;;;;;4771603;30;19929;-78
2022/03/15 02:50:50;;;;;;;;;;;1.80;99.90;;;;;;4801401;29;20310;-77
2022/03/15 02:53:16;;;;;;;;;;;1.80;99.90;;;;;;4771390;30;19928;-77
2022/03/15 02:55:42;;;;;;;;;;;1.80;99.90;;;;;;4795118;29;19975;-77
2022/03/15 02:58:08;;;;;;;;;;;1.80;99.90;;;;;;4771621;30;19922;-77
2022/03/15 03:00:34;;;;;;;;;;;1.80;99.90;;;;;;4801224;29;19926;-77
2022/03/15 03:02:59;;;;;;;;;;;1.80;99.90;;;;;;4801339;29;19921;-78
2022/03/15 03:05:26;;;;;;;;;;;1.80;99.90;;;;;;4803980;29;19920;-78
2022/03/15 03:07:51;;;;;;;;;;;1.80;99.90;;;;;;4785731;29;20021;-77
2022/03/15 03:10:17;;;;;;;;;;;1.90;99.90;;;;;;4799798;29;20406;-78
2022/03/15 03:12:48;;;;;;;;;;;1.90;99.90;;;;;;4771033;30;19921;-77
2022/03/15 03:15:15;;;;;;;;;;;2.00;99.90;;;;;;4756310;30;20328;-77
2022/03/15 03:17:41;;;;;;;;;;;2.00;99.90;;;;;;4771116;29;20412;-77
2022/03/15 03:20:11;;;;;;;;;;;2.00;99.90;;;;;;4801020;29;19969;-78
2022/03/15 03:22:37;;;;;;;;;;;2.00;99.90;;;;;;4800894;29;20343;-77
2022/03/15 03:25:04;;;;;;;;;;;2.00;99.90;;;;;;4788928;29;19921;-77
2022/03/15 03:27:29;;;;;;;;;;;2.00;99.90;;;;;;4775769;29;19921;-77
2022/03/15 03:29:57;;;;;;;;;;;2.00;99.90;;;;;;4770978;30;19937;-77
2022/03/15 03:32:23;;;;;;;;;;;1.90;99.90;;;;;;4787732;29;19977;-77
2022/03/15 03:34:48;;;;;;;;;;;1.90;99.90;;;;;;4788789;29;20011;-77
2022/03/15 03:37:14;;;;;;;;;;;1.90;99.90;;;;;;4784724;29;19998;-77
2022/03/15 03:39:39;;;;;;;;;;;1.80;99.90;;;;;;4800644;29;19921;-77
2022/03/15 03:42:05;;;;;;;;;;;1.80;99.90;;;;;;4787268;30;19921;-78
2022/03/15 03:44:33;;;;;;;;;;;1.80;99.90;;;;;;4770834;29;19921;-77
2022/03/15 03:46:59;;;;;;;;;;;1.70;99.90;;;;;;4770713;30;19937;-77
2022/03/15 03:49:24;;;;;;;;;;;1.70;99.90;;;;;;4804672;29;19928;-77
2022/03/15 03:51:50;;;;;;;;;;;1.60;99.90;;;;;;4787564;29;20362;-77
2022/03/15 03:54:15;;;;;;;;;;;1.70;99.90;;;;;;4788273;29;19921;-77
2022/03/15 03:56:41;;;;;;;;;;;1.70;99.90;;;;;;4787866;29;20015;-77
2022/03/15 03:59:06;;;;;;;;;;;1.80;99.90;;;;;;4787449;29;19964;-77
2022/03/15 04:01:32;;;;;;;;;;;1.70;99.90;;;;;;4787985;29;19921;-77
2022/03/15 04:04:04;;;;;;;;;;;1.70;99.90;;;;;;4788399;29;20448;-77
2022/03/15 04:06:30;;;;;;;;;;;1.70;99.90;;;;;;4773275;29;20293;-78
2022/03/15 04:08:56;;;;;;;;;;;1.80;99.90;;;;;;4782015;29;19976;-77
2022/03/15 04:11:21;;;;;;;;;;;1.70;99.90;;;;;;4756199;30;20066;-78
2022/03/15 04:13:47;;;;;;;;;;;1.80;99.90;;;;;;4800363;29;19925;-77
2022/03/15 04:16:13;;;;;;;;;;;1.80;99.90;;;;;;4784999;30;19921;-77
2022/03/15 04:18:38;;;;;;;;;;;1.90;99.90;;;;;;4780609;29;20385;-77
2022/03/15 04:21:04;;;;;;;;;;;2.00;99.90;;;;;;4786426;29;19921;-77
2022/03/15 04:23:30;;;;;;;;;;;2.00;99.90;;;;;;4788152;29;20011;-77
2022/03/15 04:25:55;;;;;;;;;;;2.00;99.90;;;;;;4787856;29;19936;-77
2022/03/15 04:28:21;;;;;;;;;;;2.10;99.90;;;;;;4768110;29;19989;-77
2022/03/15 04:30:46;;;;;;;;;;;2.10;99.90;;;;;;4787865;29;20019;-77
2022/03/15 04:33:12;;;;;;;;;;;2.20;99.90;;;;;;4788031;29;19921;-78
2022/03/15 04:35:38;;;;;;;;;;;2.20;99.90;;;;;;4773322;29;20024;-78
2022/03/15 04:38:03;;;;;;;;;;;2.30;99.90;;;;;;4773666;30;19979;-78
2022/03/15 04:40:29;;;;;;;;;;;2.30;99.90;;;;;;4806560;29;19925;-78
2022/03/15 04:42:54;;;;;;;;;;;2.40;99.90;;;;;;4776408;29;19921;-78
2022/03/15 04:45:20;;;;;;;;;;;2.40;99.90;;;;;;4775570;29;20440;-79
2022/03/15 04:47:46;;;;;;;;;;;2.50;99.90;;;;;;4783534;29;19928;-79
2022/03/15 04:50:11;;;;;;;;;;;2.60;99.90;;;;;;4786684;29;19988;-80
2022/03/15 04:52:37;;;;;;;;;;;2.70;99.90;;;;;;4791632;29;19932;-81
2022/03/15 04:55:03;;;;;;;;;;;2.80;99.90;;;;;;4820037;29;20040;-80
2022/03/15 04:57:28;;;;;;;;;;;2.90;99.90;;;;;;4823099;29;19925;-79
2022/03/15 04:59:54;;;;;;;;;;;2.90;99.90;;;;;;4807462;29;19947;-80
2022/03/15 05:02:20;;;;;;;;;;;2.90;99.90;;;;;;4807966;29;19932;-80
2022/03/15 05:04:45;;;;;;;;;;;2.90;99.90;;;;;;4807988;29;19921;-80
2022/03/15 05:07:11;;;;;;;;;;;2.90;99.90;;;;;;4791516;29;19941;-79
2022/03/15 05:11:06;;;;;;;;;;;2.90;99.90;;;;;;4807971;29;19928;-79
2022/03/15 05:12:22;;;;;;;;;;;2.90;99.90;;;;;;4808954;29;19910;-80
2022/03/15 05:14:47;;;;;;;;;;;3.00;99.90;;;;;;4808169;29;19928;-80
2022/03/15 05:17:13;;;;;;;;;;;3.10;99.90;;;;;;4790705;29;19928;-80
2022/03/15 05:19:38;;;;;;;;;;;3.10;99.90;;;;;;4808430;29;19924;-80
2022/03/15 05:22:03;;;;;;;;;;;3.10;99.90;;;;;;4793376;30;19988;-80
2022/03/15 05:24:29;;;;;;;;;;;3.10;99.90;;;;;;4791085;29;19925;-80
2022/03/15 05:26:54;;;;;;;;;;;3.20;99.90;;;;;;4802363;30;19922;-80
2022/03/15 05:29:20;;;;;;;;;;;3.20;99.90;;;;;;4818600;29;20063;-80
2022/03/15 05:31:45;;;;;;;;;;;3.30;99.90;;;;;;4817999;29;20020;-80
2022/03/15 05:34:11;;;;;;;;;;;3.20;99.90;;;;;;4832516;29;20459;-80
2022/03/15 05:36:36;;;;;;;;;;;3.20;99.90;;;;;;4808448;29;19979;-80
2022/03/15 05:39:02;;;;;;;;;;;3.30;99.90;;;;;;4804796;29;19921;-80
2022/03/15 05:41:27;;;;;;;;;;;3.40;99.90;;;;;;4804552;29;19971;-80
2022/03/15 05:43:53;;;;;;;;;;;3.40;99.90;;;;;;4804810;29;20007;-80
2022/03/15 05:46:19;;;;;;;;;;;3.50;99.90;;;;;;4802897;29;19925;-80
2022/03/15 05:48:45;;;;;;;;;;;3.60;99.90;;;;;;4787108;30;19922;-80
2022/03/15 05:51:10;;;;;;;;;;;3.60;99.90;;;;;;4786157;29;19925;-80
2022/03/15 05:53:36;;;;;;;;;;;3.60;99.90;;;;;;4785688;30;19944;-80
2022/03/15 05:56:01;;;;;;;;;;;3.60;99.90;;;;;;4784225;30;19948;-80
2022/03/15 05:58:27;;;;;;;;;;;3.60;99.90;;;;;;4787309;30;19957;-79
2022/03/15 06:00:55;;;;;;;;;;;3.60;99.90;;;;;;4815134;29;19929;-80
2022/03/15 06:03:21;;;;;;;;;;;3.60;99.90;;;;;;4813913;29;19921;-80
2022/03/15 06:05:46;;;;;;;;;;;3.70;99.90;;;;;;4783727;29;19922;-80
2022/03/15 06:08:12;;;;;;;;;;;3.80;99.90;;;;;;4783320;30;19928;-80
2022/03/15 06:10:38;;;;;;;;;;;3.80;99.90;;;;;;4812997;29;19925;-81
2022/03/15 06:13:03;;;;;;;;;;;3.80;99.90;;;;;;4823944;29;20371;-80
2022/03/15 06:15:29;;;;;;;;;;;3.80;99.90;;;;;;4786527;29;19933;-80
2022/03/15 06:17:59;;;;;;;;;;;3.80;99.90;;;;;;4793914;29;19921;-81
2022/03/15 06:20:25;;;;;;;;;;;3.80;99.90;;;;;;4808144;29;19971;-80
2022/03/15 06:22:51;;;;;;;;;;;3.80;99.90;;;;;;4808453;29;19921;-80
2022/03/15 06:25:17;;;;;;;;;;;3.80;99.90;;;;;;4805712;29;20324;-80
2022/03/15 06:27:43;;;;;;;;;;;3.90;99.90;;;;;;4785020;29;19921;-79
2022/03/15 06:30:09;;;;;;;;;;;4.00;99.90;;;;;;4799957;29;19932;-80
2022/03/15 06:32:35;;;;;;;;;;;4.10;99.90;;;;;;4799855;29;19996;-79
2022/03/15 06:35:07;;;;;;;;;;;4.20;99.90;;;;;;4796955;29;20266;-79
2022/03/15 06:37:38;;;;;;;;;;;4.20;99.90;;;;;;4767763;30;19922;-80
2022/03/15 06:40:04;;;;;;;;;;;4.30;99.90;;;;;;4782391;30;19921;-79
2022/03/15 06:42:31;;;;;;;;;;;4.40;99.90;;;;;;4782347;30;19921;-80
2022/03/15 06:44:57;;;;;;;;;;;4.40;99.90;;;;;;4781542;30;19957;-81
2022/03/15 06:47:23;;;;;;;;;;;4.50;99.90;;;;;;4784286;30;19952;-81
2022/03/15 06:49:48;;;;;;;;;;;4.50;99.90;;;;;;4788565;29;19921;-81
2022/03/15 06:52:14;;;;;;;;;;;4.50;99.90;;;;;;4789692;30;19933;-82
2022/03/15 06:54:39;;;;;;;;;;;4.60;99.90;;;;;;4792400;30;19917;-81
2022/03/15 06:57:05;;;;;;;;;;;4.70;99.90;;;;;;4776052;30;19925;-81
2022/03/15 06:59:30;;;;;;;;;;;4.70;99.90;;;;;;4792209;30;19921;-82
2022/03/15 07:01:56;;;;;;;;;;;4.80;99.90;;;;;;4792083;30;19921;-82
2022/03/15 07:04:21;;;;;;;;;;;4.80;99.90;;;;;;4791531;30;19932;-81
2022/03/15 07:06:46;;;;;;;;;;;4.90;99.90;;;;;;4791716;29;19921;-80
2022/03/15 07:09:12;;;;;;;;;;;4.90;99.90;;;;;;4789763;29;19960;-81
2022/03/15 07:11:38;;;;;;;;;;;4.90;99.90;;;;;;4789678;29;20296;-81
2022/03/15 07:14:04;;;;;;;;;;;5.00;99.90;;;;;;4789506;29;19961;-80
2022/03/15 07:16:30;;;;;;;;;;;5.00;99.90;;;;;;4803831;29;19960;-80
2022/03/15 07:18:56;;;;;;;;;;;5.10;99.90;;;;;;4789198;29;20211;-80
2022/03/15 07:21:21;;;;;;;;;;;5.20;99.90;;;;;;4801434;29;19925;-81
2022/03/15 07:23:47;;;;;;;;;;;5.20;99.90;;;;;;4803684;29;20087;-80
2022/03/15 07:26:13;;;;;;;;;;;5.30;99.90;;;;;;4803918;29;19921;-81
2022/03/15 07:28:38;;;;;;;;;;;5.40;99.90;;;;;;4789219;29;19932;-80
2022/03/15 07:31:04;;;;;;;;;;;5.50;99.90;;;;;;4803814;29;19951;-80
2022/03/15 07:33:30;;;;;;;;;;;5.50;99.90;;;;;;4802828;29;20367;-80
2022/03/15 07:35:55;;;;;;;;;;;5.60;99.90;;;;;;4802641;29;20007;-81
2022/03/15 07:38:21;;;;;;;;;;;5.60;99.90;;;;;;4803817;29;19921;-81
2022/03/15 07:40:47;;;;;;;;;;;5.70;99.90;;;;;;4801880;29;20025;-81
2022/03/15 07:43:12;;;;;;;;;;;5.80;99.90;;;;;;4803109;29;20292;-81
2022/03/15 07:45:38;;;;;;;;;;;5.80;99.90;;;;;;4802478;29;19936;-81
2022/03/15 07:48:05;;;;;;;;;;;5.90;99.90;;;;;;4788042;29;19924;-82
2022/03/15 07:50:31;;;;;;;;;;;6.00;99.90;;;;;;4787237;29;19941;-80
2022/03/15 07:52:57;;;;;;;;;;;6.00;99.90;;;;;;4801617;29;20448;-80
2022/03/15 07:55:23;;;;;;;;;;;6.10;99.90;;;;;;4801285;29;19921;-80
2022/03/15 07:57:48;;;;;;;;;;;6.10;99.90;;;;;;4786841;30;19968;-80
2022/03/15 08:00:14;;;;;;;;;;;6.20;99.90;;;;;;4782336;30;19921;-81
2022/03/15 08:02:40;;;;;;;;;;;6.20;99.90;;;;;;4804318;24;20349;-78
2022/03/15 08:05:06;;;;;;;;;;;6.30;99.90;;;;;;4786072;29;19928;-77
2022/03/15 08:07:33;;;;;;;;;;;6.30;99.90;;;;;;4788263;29;20296;-77
2022/03/15 08:09:58;;;;;;;;;;;6.40;99.90;;;;;;4788094;29;20025;-77
2022/03/15 08:12:25;;;;;;;;;;;6.50;99.90;;;;;;4788369;29;19991;-77
2022/03/15 08:14:51;;;;;;;;;;;6.50;99.90;;;;;;4788139;29;20053;-77
2022/03/15 08:17:17;;;;;;;;;;;6.50;99.90;;;;;;4788476;29;20012;-78
2022/03/15 08:19:42;;;;;;;;;;;6.60;99.90;;;;;;4788263;29;20365;-78
2022/03/15 08:22:08;;;;;;;;;;;6.60;99.90;;;;;;4788257;29;19921;-78
2022/03/15 08:24:33;;;;;;;;;;;6.60;99.90;;;;;;4773440;29;19921;-78
2022/03/15 08:26:59;;;;;;;;;;;6.60;99.90;;;;;;4788353;29;19933;-78
2022/03/15 08:29:25;;;;;;;;;;;6.60;99.90;;;;;;4788293;29;20123;-78
2022/03/15 08:31:50;;;;;;;;;;;6.70;99.90;;;;;;4787952;29;19986;-78
2022/03/15 08:34:16;;;;;;;;;;;6.70;99.90;;;;;;4788249;29;20352;-79
2022/03/15 08:36:44;;;;;;;;;;;6.70;99.90;;;;;;4787917;29;19921;-79
2022/03/15 08:39:09;;;;;;;;;;;6.70;99.90;;;;;;4773257;29;19925;-79
2022/03/15 08:41:35;;;;;;;;;;;6.70;99.90;;;;;;4788150;29;19954;-79
2022/03/15 08:44:00;;;;;;;;;;;6.70;99.90;;;;;;4773373;29;19928;-79
2022/03/15 08:46:26;;;;;;;;;;;6.70;99.90;;;;;;4788048;29;19972;-79
2022/03/15 08:48:52;;;;;;;;;;;6.70;99.90;;;;;;4788179;29;20445;-79
2022/03/15 08:51:18;;;;;;;;;;;6.70;99.90;;;;;;4788206;29;20338;-79
2022/03/15 08:53:44;;;;;;;;;;;6.70;99.90;;;;;;4788467;29;19927;-79
2022/03/15 08:56:09;;;;;;;;;;;6.70;99.90;;;;;;4787980;29;19984;-79
2022/03/15 08:58:35;;;;;;;;;;;6.70;99.90;;;;;;4788096;29;19973;-79
2022/03/15 09:01:00;;;;;;;;;;;6.80;99.90;;;;;;4788306;29;19937;-79
2022/03/15 09:03:26;;;;;;;;;;;6.80;99.90;;;;;;4788456;29;20383;-79
2022/03/15 09:05:51;;;;;;;;;;;6.80;99.90;;;;;;4787658;29;19921;-79
2022/03/15 09:08:17;;;;;;;;;;;6.80;99.90;;;;;;4788019;29;19921;-79
2022/03/15 09:10:44;;;;;;;;;;;6.80;99.90;;;;;;4788007;29;19936;-79
2022/03/15 09:13:10;;;;;;;;;;;6.90;99.90;;;;;;4791310;29;19969;-79
2022/03/15 09:15:36;;;;;;;;;;;6.90;99.90;;;;;;4791276;29;19921;-79
2022/03/15 09:18:02;;;;;;;;;;;7.00;99.90;;;;;;4805983;29;19924;-79
2022/03/15 09:20:27;;;;;;;;;;;7.00;99.90;;;;;;4807267;29;20000;-79
2022/03/15 09:22:53;;;;;;;;;;;7.00;99.90;;;;;;4809355;29;19946;-79
2022/03/15 09:25:19;;;;;;;;;;;7.10;99.90;;;;;;4794963;29;19944;-79
2022/03/15 09:27:46;;;;;;;;;;;7.10;99.90;;;;;;4791283;29;19998;-79
2022/03/15 09:30:12;;;;;;;;;;;7.10;99.90;;;;;;4791108;29;20543;-79
2022/03/15 09:32:37;;;;;;;;;;;7.10;99.90;;;;;;4791047;29;19927;-79
2022/03/15 09:35:03;;;;;;;;;;;7.20;99.90;;;;;;4791018;29;19921;-79
2022/03/15 09:37:29;;;;;;;;;;;7.20;99.90;;;;;;4776054;29;20008;-79
2022/03/15 09:39:57;;;;;;;;;;;7.20;99.90;;;;;;4791086;29;19925;-79
2022/03/15 09:42:23;;;;;;;;;;;7.20;99.90;;;;;;4790915;29;19921;-79
2022/03/15 09:44:49;;;;;;;;;;;7.30;99.90;;;;;;4790809;29;19921;-79
2022/03/15 09:47:15;;;;;;;;;;;7.30;99.90;;;;;;4790832;29;19942;-80
2022/03/15 09:49:42;;;;;;;;;;;7.30;99.90;;;;;;4790733;29;20008;-79
2022/03/15 09:52:10;;;;;;;;;;;7.30;99.90;;;;;;4790642;29;19925;-79
2022/03/15 09:54:36;;;;;;;;;;;7.30;99.90;;;;;;4790762;29;19964;-79
2022/03/15 09:57:03;;;;;;;;;;;7.30;99.90;;;;;;4790477;29;20280;-79
2022/03/15 09:59:29;;;;;;;;;;;7.30;99.90;;;;;;4790317;29;20407;-80
2022/03/15 10:01:56;;;;;;;;;;;7.40;99.90;;;;;;4790426;29;19925;-79
2022/03/15 10:04:22;;;;;;;;;;;7.40;99.90;;;;;;4790583;29;19928;-79
2022/03/15 10:06:48;;;;;;;;;;;7.50;99.90;;;;;;4790226;29;19947;-79
2022/03/15 10:09:14;;;;;;;;;;;7.50;99.90;;;;;;4790774;29;19921;-79
2022/03/15 10:11:40;;;;;;;;;;;7.50;99.90;;;;;;4790602;29;20351;-80
2022/03/15 10:14:06;;;;;;;;;;;7.60;99.90;;;;;;4790058;29;20004;-78
2022/03/15 10:16:32;;;;;;;;;;;7.70;99.90;;;;;;4790038;29;19929;-79
2022/03/15 10:18:58;;;;;;;;;;;7.80;99.90;;;;;;4790378;29;19921;-79
2022/03/15 10:21:27;;;;;;;;;;;7.90;99.90;;;;;;4790128;29;19921;-79
2022/03/15 10:23:54;;;;;;;;;;;8.00;99.90;;;;;;4790371;29;20363;-79
2022/03/15 10:26:24;;;;;;;;;;;8.10;99.90;;;;;;4789911;29;20023;-79
2022/03/15 10:28:53;;;;;;;;;;;8.20;99.90;;;;;;4789946;29;20000;-79
2022/03/15 10:31:21;;;;;;;;;;;8.30;99.90;;;;;;4789862;29;20515;-78
2022/03/15 10:33:46;;;;;;;;;;;8.40;99.90;;;;;;4789889;29;19971;-78
2022/03/15 10:36:19;;;;;;;;;;;8.60;99.90;;;;;;4789680;29;19964;-78
2022/03/15 10:38:48;;;;;;;;;;;8.70;99.90;;;;;;4789678;29;19925;-79
2022/03/15 10:41:18;;;;;;;;;;;8.90;99.90;;;;;;4790198;29;20332;-78
2022/03/15 10:43:44;;;;;;;;;;;9.00;99.90;;;;;;4789755;29;19921;-78
2022/03/15 10:46:12;;;;;;;;;;;9.10;99.90;;;;;;4789201;29;20273;-79
2022/03/15 10:48:38;;;;;;;;;;;9.20;99.90;;;;;;4789776;29;19921;-78
2022/03/15 10:51:10;;;;;;;;;;;9.30;99.90;;;;;;4789394;29;20396;-78
2022/03/15 10:53:43;;;;;;;;;;;9.30;99.90;;;;;;4789450;29;20404;-78
2022/03/15 10:56:08;;;;;;;;;;;9.40;99.90;;;;;;4789141;29;19921;-78
2022/03/15 10:58:34;;;;;;;;;;;9.40;99.90;;;;;;4789663;29;19977;-78
2022/03/15 11:00:59;;;;;;;;;;;9.40;99.90;;;;;;4789372;29;19975;-78
2022/03/15 11:03:29;;;;;;;;;;;9.50;99.90;;;;;;4789130;29;19921;-78
2022/03/15 11:05:56;;;;;;;;;;;9.50;99.90;;;;;;4789129;29;19925;-78
2022/03/15 11:08:22;;;;;;;;;;;9.50;99.90;;;;;;4789461;29;19928;-78
2022/03/15 11:10:52;;;;;;;;;;;9.60;99.90;;;;;;4789161;29;19925;-80
2022/03/15 11:13:17;;;;;;;;;;;9.60;99.90;;;;;;4789518;29;19921;-79
2022/03/15 11:15:46;;;;;;;;;;;9.70;99.90;;;;;;4789450;29;19928;-79
2022/03/15 11:18:12;;;;;;;;;;;9.80;99.90;;;;;;4789476;29;19962;-79
2022/03/15 11:20:39;;;;;;;;;;;9.80;99.90;;;;;;4789324;29;19920;-79
2022/03/15 11:23:07;;;;;;;;;;;10.00;99.90;;;;;;4789303;29;19925;-79
2022/03/15 11:25:34;;;;;;;;;;;10.10;99.90;;;;;;4789518;29;19921;-79
2022/03/15 11:28:00;;;;;;;;;;;10.30;99.90;;;;;;4789136;29;20007;-79
2022/03/15 11:30:27;;;;;;;;;;;10.40;99.90;;;;;;4789113;29;20373;-79
2022/03/15 11:32:53;;;;;;;;;;;10.50;99.90;;;;;;4789112;29;20381;-79
2022/03/15 11:35:22;;;;;;;;;;;10.60;99.90;;;;;;4788805;29;20420;-79
2022/03/15 11:37:48;;;;;;;;;;;10.70;99.90;;;;;;4788596;29;19921;-81
2022/03/15 11:40:13;;;;;;;;;;;10.90;99.90;;;;;;4788736;29;19951;-80
2022/03/15 11:42:42;;;;;;;;;;;11.00;99.90;;;;;;4788662;29;19921;-79
2022/03/15 11:45:28;;;;;;;;;;;11.10;99.90;;;;;;4788475;29;19921;-79
2022/03/15 11:47:59;;;;;;;;;;;11.20;99.90;;;;;;4788494;29;20315;-78
2022/03/15 11:50:43;;;;;;;;;;;11.20;99.90;;;;;;4788606;29;19928;-79
2022/03/15 11:53:15;;;;;;;;;;;11.30;99.90;;;;;;4787464;29;19921;-78
2022/03/15 11:55:46;;;;;;;;;;;11.30;99.90;;;;;;4788302;29;19974;-79
2022/03/15 11:58:22;;;;;;;;;;;11.50;99.90;;;;;;4788841;29;20008;-78
2022/03/15 12:00:48;;;;;;;;;;;11.60;99.90;;;;;;4788624;29;20012;-78
2022/03/15 12:03:18;;;;;;;;;;;11.70;99.90;;;;;;4788733;29;19925;-78
2022/03/15 12:05:45;;;;;;;;;;;11.80;99.90;;;;;;4788243;29;19928;-78
2022/03/15 12:08:22;;;;;;;;;;;11.90;99.90;;;;;;4788252;29;19921;-78
2022/03/15 12:10:51;;;;;;;;;;;11.90;99.90;;;;;;4788707;29;20000;-78
2022/03/15 12:13:17;;;;;;;;;;;12.00;99.90;;;;;;4788489;29;20000;-78
2022/03/15 12:15:44;;;;;;;;;;;12.00;99.90;;;;;;4788154;29;19927;-78
2022/03/15 12:18:23;;;;;;;;;;;12.00;99.90;;;;;;4788544;29;19921;-76
2022/03/15 12:20:55;;;;;;;;;;;12.10;99.90;;;;;;4788215;29;19928;-76
2022/03/15 12:23:27;;;;;;;;;;;12.00;99.90;;;;;;4788673;29;19993;-76
2022/03/15 12:25:54;;;;;;;;;;;12.00;99.90;;;;;;4788011;29;20012;-76
2022/03/15 12:28:27;;;;;;;;;;;12.00;99.90;;;;;;4788362;29;19978;-77
2022/03/15 12:30:53;;;;;;;;;;;12.10;99.90;;;;;;4788424;29;20007;-77
2022/03/15 12:33:28;;;;;;;;;;;12.00;99.90;;;;;;4788106;29;20285;-77
2022/03/15 12:36:04;;;;;;;;;;;12.00;99.90;;;;;;4787783;29;19925;-77
2022/03/15 12:38:34;;;;;;;;;;;12.00;99.90;;;;;;4788217;29;19937;-77
2022/03/15 12:41:01;;;;;;;;;;;11.90;99.90;;;;;;4788154;29;19928;-77
2022/03/15 12:43:26;;;;;;;;;;;11.90;99.90;;;;;;4787831;29;20007;-77
2022/03/15 12:45:52;;;;;;;;;;;11.80;99.90;;;;;;4787883;29;19964;-77
2022/03/15 12:48:27;;;;;;;;;;;11.90;99.90;;;;;;4788050;29;19928;-77
2022/03/15 12:50:56;;;;;;;;;;;11.80;99.90;;;;;;4787920;29;19960;-77
2022/03/15 12:53:32;;;;;;;;;;;11.80;99.90;;;;;;4788419;29;19921;-77
2022/03/15 12:56:00;;;;;;;;;;;11.80;99.90;;;;;;4789386;29;20360;-77
2022/03/15 12:58:25;;;;;;;;;;;11.90;99.90;;;;;;4791704;29;19964;-77
2022/03/15 13:00:52;;;;;;;;;;;11.90;99.90;;;;;;4791059;29;20431;-77
2022/03/15 13:03:18;;;;;;;;;;;11.90;99.90;;;;;;4791437;29;19921;-78
2022/03/15 13:05:45;;;;;;;;;;;11.90;99.90;;;;;;4791160;29;20436;-77
2022/03/15 13:08:11;;;;;;;;;;;11.90;99.90;;;;;;4776391;29;19951;-77
2022/03/15 13:10:43;;;;;;;;;;;12.10;99.90;;;;;;4791444;29;20274;-77
2022/03/15 13:13:18;;;;;;;;;;;12.50;99.90;;;;;;4776199;29;19921;-78
2022/03/15 13:15:48;;;;;;;;;;;13.30;99.90;;;;;;4790814;29;19921;-78
2022/03/15 13:18:17;;;;;;;;;;;14.30;99.90;;;;;;4791080;29;20385;-78
2022/03/15 13:20:43;;;;;;;;;;;14.80;99.90;;;;;;4791025;29;19921;-78
2022/03/15 13:23:08;;;;;;;;;;;15.40;99.90;;;;;;4791370;29;19927;-78
2022/03/15 13:25:35;;;;;;;;;;;16.10;99.90;;;;;;4791015;29;19996;-78
2022/03/15 13:28:06;;;;;;;;;;;16.60;99.90;;;;;;4791075;29;19920;-78
2022/03/15 13:30:36;;;;;;;;;;;17.10;99.90;;;;;;4791133;29;19925;-78
2022/03/15 13:33:01;;;;;;;;;;;17.50;99.90;;;;;;4790532;29;19946;-78
2022/03/15 13:35:27;;;;;;;;;;;17.80;99.90;;;;;;4791068;29;20288;-78
2022/03/15 13:37:53;;;;;;;;;;;17.90;99.90;;;;;;4790948;29;19967;-78
2022/03/15 13:40:23;;;;;;;;;;;18.20;99.90;;;;;;4790812;29;19921;-78
2022/03/15 13:42:49;;;;;;;;;;;18.30;98.00;;;;;;4790631;29;19921;-78
2022/03/15 13:45:15;;;;;;;;;;;18.30;97.00;;;;;;4791128;29;20351;-78
2022/03/15 13:47:53;;;;;;;;;;;18.20;96.10;;;;;;4790512;29;19921;-78
2022/03/15 13:50:21;;;;;;;;;;;18.30;97.00;;;;;;4775688;29;19929;-78
2022/03/15 13:52:48;;;;;;;;;;;18.40;99.80;;;;;;4790290;29;20036;-78
2022/03/15 13:55:15;;;;;;;;;;;18.60;99.90;;;;;;4790875;29;20373;-78
2022/03/15 13:57:42;;;;;;;;;;;18.70;96.20;;;;;;4790302;29;20400;-78
2022/03/15 14:00:17;;;;;;;;;;;18.80;96.30;;;;;;4790458;29;19921;-78
2022/03/15 14:02:43;;;;;;;;;;;19.00;90.90;;;;;;4817153;24;20448;-79
2022/03/15 14:05:14;;;;;;;;;;;19.30;86.80;;;;;;4795803;29;19921;-79
2022/03/15 14:07:40;;;;;;;;;;;19.50;91.60;;;;;;4812689;29;20246;-79
2022/03/15 14:10:09;;;;;;;;;;;19.60;83.10;;;;;;4812214;29;19935;-79
2022/03/15 14:12:35;;;;;;;;;;;19.90;73.20;;;;;;4812933;29;19920;-79
2022/03/15 14:15:03;;;;;;;;;;;20.00;73.30;;;;;;4812630;29;19920;-79
2022/03/15 14:17:40;;;;;;;;;;;20.10;73.90;;;;;;4814332;29;19955;-79
2022/03/15 14:20:11;;;;;;;;;;;20.20;72.70;;;;;;4813137;29;19931;-79
2022/03/15 14:22:42;;;;;;;;;;;20.20;69.70;;;;;;4813603;29;19963;-79